Charles B. Wheeler Downtown Airport
KMKC : rendu visible

Aérodrome :











RETROUVEZ-NOUS SUR...

 
LOGIN :

S'inscrire | Disclaimer

   EN    FR    IT 

 









Légende :    VFR   VFR Marginal   IFR   IFR Intensif   IFR Très Intensif
Visi : 
Plafond : 
>= 8 km
>= 3000ft
5 à 8 km
1000 à 3000 ft
1500m à 5 km
500 à 1000 ft
800 à 1500m
200 à 500 ft
< 800m
< 200 ft
Symboles :   Orages  Brouillard  Fortes neiges  Fortes précipitations  Vent > 20 kt






- Altitude de l'aérodrome : 759 ft
- Code IATA : MKC


KMKC - Charles B. Wheeler Downtown

DERNIER METAR :
  • 281311Z 24004KT 2 1/2SM +RA BR FEW006 BKN012 OVC017 19/18 A2989 RMK AO2 VIS 1 1/2V5 RAB1259 P0007 T01890178

METARs EXPIRÉS :
  • 281254Z 24003KT 10SM BKN016 OVC095 19/18 A2989 RMK AO2 RAE34 SLP114 P0005 T01890178
  • 281221Z 22006KT 4SM -RA BR SCT019 BKN031 OVC090 19/18 A2987 RMK AO2 P0005 T01890178
  • 281203Z 23004KT 3SM RA BR SCT019 BKN028 OVC033 19/18 A2988 RMK AO2 P0003 T01890178
  • 281154Z 23005KT 5SM -RA BR FEW011 SCT025 OVC032 19/18 A2987 RMK AO2 SLP110 P0009 60017 70085 T01890178 10194 20183 53005
  • 281140Z 22004KT 5SM -RA BR FEW011 BKN027 OVC035 18/18 A2988 RMK AO2 P0007 T01830178
  • 281116Z 27004KT 4SM -RA BR FEW005 BKN032 OVC045 19/18 A2987 RMK AO2 P0004 T01890183
  • 281106Z 25004KT 2SM RA BR FEW005 BKN037 OVC045 19/18 A2987 RMK AO2 P0004 T01890178
  • 281031Z 24004KT 5SM BR BKN029 OVC037 19/18 A2987 RMK AO2 RAB07E31 P0001 T01890178
  • 281018Z 28004KT 2SM -RA BR BKN026 BKN035 OVC043 19/18 A2987 RMK AO2 RAB07 P0001 T01890178

TAF KMKC
Valide du 28 à 12h jusqu'au 29 à 12h UTC


281120Z 2812/2912 28005KT 6SM -SHRA SCT005 BKN025
TEMPO 2812/2816 2SM RA BKN007
FM281600 34007KT 5SM -SHRA VCTS BKN015CB
TEMPO 2816/2820 2SM TSRA
FM282000 35008KT 6SM -SHRA BR BKN025
FM290000 36008KT P6SM SCT030 BKN200
FIR KZKC / Amérique du Nord



MET'MAP, la Météo Aéronautique d'un coup d'oeil ! - Copyright ORBIFLY Décembre 2007 - Disclaimer

ORBIFLY MET'MAP TEAM :

Programmation & Développement : Alexandra Zaïnal
Sur une idée originale de : Baudouin d'Aumeries
Assistance à la programmation : Marc-Olivier Méhu
Soutien technique & logistique : Manuel Goepfert

Contact : metmap@orbifly.com




SOURCES & CREDITS :

   NOAA       Earth
Advisory